Terminal Aerodrome Forecast
Issued by NWS

Home | Current Version | Previous Version | Text Only | Print | Product List | Glossary On
Versions: 1 2 3 4 5 6 7 8 9 10 11 12 13 14 15 16 17 18 19 20 21 22 23 24 25 26 27 28 29 30
000
FTUS45 KGJT 031120
TAFTEX
TAF
KTEX 031120Z 0312/0412 VRB03KT P6SM VCSH BKN080
     FM031800 24006KT P6SM VCTS SCT050CB BKN080
      TEMPO 0320/0324 VRB15G25KT -TSRA BKN050CB
     FM040200 13003KT P6SM FEW100=

USA.gov is the U.S. government's official web portal to all federal, state and local government web resources and services.